sensor_id;sensor_type;location;lat;lon;timestamp;P1;durP1;ratioP1;P2;durP2;ratioP2
36787;SDS011;22738;45.560;9.434;2022-12-24T00:03:26;86.30;;;38.40;;
36787;SDS011;22738;45.560;9.434;2022-12-24T00:10:09;92.80;;;40.78;;
36787;SDS011;22738;45.560;9.434;2022-12-24T00:16:54;93.65;;;40.65;;
36787;SDS011;22738;45.560;9.434;2022-12-24T00:23:36;91.15;;;40.15;;
36787;SDS011;22738;45.560;9.434;2022-12-24T00:30:17;87.03;;;39.60;;
36787;SDS011;22738;45.560;9.434;2022-12-24T00:36:58;101.05;;;42.95;;
36787;SDS011;22738;45.560;9.434;2022-12-24T00:43:42;94.88;;;39.70;;
36787;SDS011;22738;45.560;9.434;2022-12-24T00:50:23;86.63;;;38.95;;
36787;SDS011;22738;45.560;9.434;2022-12-24T00:57:04;99.47;;;40.15;;
36787;SDS011;22738;45.560;9.434;2022-12-24T01:03:45;104.88;;;42.88;;
36787;SDS011;22738;45.560;9.434;2022-12-24T01:10:30;92.72;;;39.38;;
36787;SDS011;22738;45.560;9.434;2022-12-24T01:17:18;99.25;;;43.03;;
36787;SDS011;22738;45.560;9.434;2022-12-24T01:23:59;93.18;;;39.75;;
36787;SDS011;22738;45.560;9.434;2022-12-24T01:30:43;103.13;;;42.57;;
36787;SDS011;22738;45.560;9.434;2022-12-24T01:37:37;99.45;;;39.90;;
36787;SDS011;22738;45.560;9.434;2022-12-24T01:44:25;111.15;;;43.72;;
36787;SDS011;22738;45.560;9.434;2022-12-24T01:58:07;106.47;;;42.45;;
36787;SDS011;22738;45.560;9.434;2022-12-24T02:04:58;117.00;;;44.75;;
36787;SDS011;22738;45.560;9.434;2022-12-24T02:11:46;107.20;;;42.88;;
36787;SDS011;22738;45.560;9.434;2022-12-24T02:18:38;111.60;;;45.13;;
36787;SDS011;22738;45.560;9.434;2022-12-24T02:32:22;111.88;;;43.78;;
36787;SDS011;22738;45.560;9.434;2022-12-24T02:39:20;119.03;;;44.83;;
36787;SDS011;22738;45.560;9.434;2022-12-24T02:46:15;110.50;;;42.30;;
36787;SDS011;22738;45.560;9.434;2022-12-24T02:52:59;108.55;;;42.40;;
36787;SDS011;22738;45.560;9.434;2022-12-24T03:00:03;119.38;;;47.03;;
36787;SDS011;22738;45.560;9.434;2022-12-24T03:06:57;115.72;;;43.90;;
36787;SDS011;22738;45.560;9.434;2022-12-24T03:13:47;100.65;;;41.22;;
36787;SDS011;22738;45.560;9.434;2022-12-24T03:20:39;112.10;;;43.10;;
36787;SDS011;22738;45.560;9.434;2022-12-24T03:27:26;115.00;;;43.58;;
36787;SDS011;22738;45.560;9.434;2022-12-24T03:34:10;106.18;;;42.22;;
36787;SDS011;22738;45.560;9.434;2022-12-24T03:40:52;113.80;;;45.10;;
36787;SDS011;22738;45.560;9.434;2022-12-24T03:47:38;114.35;;;43.38;;
36787;SDS011;22738;45.560;9.434;2022-12-24T03:54:24;100.10;;;40.58;;
36787;SDS011;22738;45.560;9.434;2022-12-24T04:01:09;107.13;;;41.67;;
36787;SDS011;22738;45.560;9.434;2022-12-24T04:07:55;112.28;;;42.33;;
36787;SDS011;22738;45.560;9.434;2022-12-24T04:14:38;104.28;;;40.97;;
36787;SDS011;22738;45.560;9.434;2022-12-24T04:21:19;104.60;;;43.78;;
36787;SDS011;22738;45.560;9.434;2022-12-24T04:28:01;106.72;;;41.83;;
36787;SDS011;22738;45.560;9.434;2022-12-24T04:34:43;98.43;;;39.63;;
36787;SDS011;22738;45.560;9.434;2022-12-24T04:41:25;105.97;;;39.28;;
36787;SDS011;22738;45.560;9.434;2022-12-24T04:48:08;112.03;;;43.20;;
36787;SDS011;22738;45.560;9.434;2022-12-24T04:54:52;107.50;;;42.50;;
36787;SDS011;22738;45.560;9.434;2022-12-24T05:01:36;102.25;;;39.67;;
36787;SDS011;22738;45.560;9.434;2022-12-24T05:08:20;97.45;;;39.42;;
36787;SDS011;22738;45.560;9.434;2022-12-24T05:15:04;91.00;;;38.25;;
36787;SDS011;22738;45.560;9.434;2022-12-24T05:21:46;91.20;;;38.95;;
36787;SDS011;22738;45.560;9.434;2022-12-24T05:28:54;91.47;;;40.95;;
36787;SDS011;22738;45.560;9.434;2022-12-24T05:35:51;88.00;;;39.88;;
36787;SDS011;22738;45.560;9.434;2022-12-24T05:42:35;98.35;;;39.65;;
36787;SDS011;22738;45.560;9.434;2022-12-24T05:49:19;86.10;;;38.00;;
36787;SDS011;22738;45.560;9.434;2022-12-24T05:56:10;85.47;;;37.40;;
36787;SDS011;22738;45.560;9.434;2022-12-24T06:02:54;90.43;;;39.22;;
36787;SDS011;22738;45.560;9.434;2022-12-24T06:09:35;89.10;;;37.50;;
36787;SDS011;22738;45.560;9.434;2022-12-24T06:16:18;88.28;;;36.63;;
36787;SDS011;22738;45.560;9.434;2022-12-24T06:23:00;84.38;;;36.25;;
36787;SDS011;22738;45.560;9.434;2022-12-24T06:29:41;85.57;;;36.38;;
36787;SDS011;22738;45.560;9.434;2022-12-24T06:36:23;83.03;;;34.90;;
36787;SDS011;22738;45.560;9.434;2022-12-24T06:43:05;91.37;;;35.13;;
36787;SDS011;22738;45.560;9.434;2022-12-24T06:49:46;99.72;;;43.65;;
36787;SDS011;22738;45.560;9.434;2022-12-24T06:56:29;77.07;;;32.87;;
36787;SDS011;22738;45.560;9.434;2022-12-24T07:03:10;71.25;;;31.92;;
36787;SDS011;22738;45.560;9.434;2022-12-24T07:09:51;66.18;;;29.02;;
36787;SDS011;22738;45.560;9.434;2022-12-24T07:16:32;73.40;;;30.67;;
36787;SDS011;22738;45.560;9.434;2022-12-24T07:23:13;127.18;;;54.00;;
36787;SDS011;22738;45.560;9.434;2022-12-24T07:29:54;74.80;;;34.50;;
36787;SDS011;22738;45.560;9.434;2022-12-24T07:36:35;60.38;;;28.65;;
36787;SDS011;22738;45.560;9.434;2022-12-24T07:43:16;165.82;;;61.65;;
36787;SDS011;22738;45.560;9.434;2022-12-24T07:49:57;129.93;;;55.47;;
36787;SDS011;22738;45.560;9.434;2022-12-24T07:56:38;66.15;;;29.23;;
36787;SDS011;22738;45.560;9.434;2022-12-24T08:03:21;63.17;;;28.23;;
36787;SDS011;22738;45.560;9.434;2022-12-24T08:10:21;62.33;;;25.40;;
36787;SDS011;22738;45.560;9.434;2022-12-24T08:17:02;66.05;;;28.63;;
36787;SDS011;22738;45.560;9.434;2022-12-24T08:23:45;65.82;;;28.02;;
36787;SDS011;22738;45.560;9.434;2022-12-24T08:30:27;58.25;;;26.52;;
36787;SDS011;22738;45.560;9.434;2022-12-24T08:37:09;61.67;;;29.10;;
36787;SDS011;22738;45.560;9.434;2022-12-24T08:43:50;59.22;;;25.27;;
36787;SDS011;22738;45.560;9.434;2022-12-24T08:50:31;62.67;;;26.90;;
36787;SDS011;22738;45.560;9.434;2022-12-24T08:57:13;73.70;;;29.52;;
36787;SDS011;22738;45.560;9.434;2022-12-24T09:03:54;82.05;;;29.83;;
36787;SDS011;22738;45.560;9.434;2022-12-24T09:10:37;99.18;;;34.72;;
36787;SDS011;22738;45.560;9.434;2022-12-24T09:17:18;106.30;;;36.00;;
36787;SDS011;22738;45.560;9.434;2022-12-24T09:24:02;93.93;;;32.50;;
36787;SDS011;22738;45.560;9.434;2022-12-24T09:31:00;101.25;;;34.63;;
36787;SDS011;22738;45.560;9.434;2022-12-24T09:37:44;84.82;;;32.97;;
36787;SDS011;22738;45.560;9.434;2022-12-24T09:51:43;97.30;;;31.25;;
36787;SDS011;22738;45.560;9.434;2022-12-24T09:58:55;101.85;;;34.25;;
36787;SDS011;22738;45.560;9.434;2022-12-24T10:05:52;111.13;;;38.20;;
36787;SDS011;22738;45.560;9.434;2022-12-24T10:26:53;123.13;;;41.53;;
36787;SDS011;22738;45.560;9.434;2022-12-24T10:34:02;121.88;;;45.10;;
36787;SDS011;22738;45.560;9.434;2022-12-24T10:40:57;120.38;;;37.42;;
36787;SDS011;22738;45.560;9.434;2022-12-24T10:47:40;106.30;;;35.70;;
36787;SDS011;22738;45.560;9.434;2022-12-24T10:54:25;140.05;;;43.60;;
36787;SDS011;22738;45.560;9.434;2022-12-24T11:01:08;131.20;;;40.75;;
36787;SDS011;22738;45.560;9.434;2022-12-24T11:07:58;135.98;;;41.78;;
36787;SDS011;22738;45.560;9.434;2022-12-24T11:14:40;114.10;;;41.20;;
36787;SDS011;22738;45.560;9.434;2022-12-24T11:21:24;138.50;;;43.63;;
36787;SDS011;22738;45.560;9.434;2022-12-24T11:28:11;137.30;;;42.97;;
36787;SDS011;22738;45.560;9.434;2022-12-24T11:35:04;142.85;;;44.65;;
36787;SDS011;22738;45.560;9.434;2022-12-24T11:41:48;127.97;;;43.13;;
36787;SDS011;22738;45.560;9.434;2022-12-24T11:55:21;102.07;;;37.45;;
36787;SDS011;22738;45.560;9.434;2022-12-24T12:02:35;133.52;;;44.00;;
36787;SDS011;22738;45.560;9.434;2022-12-24T12:09:24;135.63;;;44.35;;
36787;SDS011;22738;45.560;9.434;2022-12-24T12:16:13;125.63;;;43.33;;
36787;SDS011;22738;45.560;9.434;2022-12-24T12:30:18;113.07;;;42.35;;
36787;SDS011;22738;45.560;9.434;2022-12-24T12:57:53;132.10;;;48.72;;
36787;SDS011;22738;45.560;9.434;2022-12-24T13:04:59;119.47;;;47.25;;
36787;SDS011;22738;45.560;9.434;2022-12-24T13:25:35;118.78;;;49.30;;
36787;SDS011;22738;45.560;9.434;2022-12-24T13:39:04;130.35;;;50.75;;
36787;SDS011;22738;45.560;9.434;2022-12-24T13:45:58;151.90;;;54.08;;
36787;SDS011;22738;45.560;9.434;2022-12-24T13:52:39;154.82;;;53.97;;
36787;SDS011;22738;45.560;9.434;2022-12-24T13:59:34;157.27;;;56.15;;
36787;SDS011;22738;45.560;9.434;2022-12-24T14:06:25;162.48;;;58.63;;
36787;SDS011;22738;45.560;9.434;2022-12-24T14:20:18;162.32;;;57.15;;
36787;SDS011;22738;45.560;9.434;2022-12-24T14:27:14;164.25;;;57.42;;
36787;SDS011;22738;45.560;9.434;2022-12-24T14:34:07;161.90;;;58.13;;
36787;SDS011;22738;45.560;9.434;2022-12-24T14:48:12;164.60;;;59.47;;
36787;SDS011;22738;45.560;9.434;2022-12-24T14:55:27;170.45;;;61.03;;
36787;SDS011;22738;45.560;9.434;2022-12-24T15:02:23;174.90;;;60.58;;
36787;SDS011;22738;45.560;9.434;2022-12-24T15:16:09;179.35;;;59.97;;
36787;SDS011;22738;45.560;9.434;2022-12-24T15:22:53;178.65;;;60.42;;
36787;SDS011;22738;45.560;9.434;2022-12-24T15:29:38;171.15;;;62.45;;
36787;SDS011;22738;45.560;9.434;2022-12-24T15:36:29;183.35;;;61.55;;
36787;SDS011;22738;45.560;9.434;2022-12-24T15:43:13;202.70;;;65.82;;
36787;SDS011;22738;45.560;9.434;2022-12-24T15:49:54;206.82;;;66.93;;
36787;SDS011;22738;45.560;9.434;2022-12-24T15:56:37;205.75;;;64.65;;
36787;SDS011;22738;45.560;9.434;2022-12-24T16:03:24;204.40;;;63.75;;
36787;SDS011;22738;45.560;9.434;2022-12-24T16:10:21;203.88;;;67.47;;
36787;SDS011;22738;45.560;9.434;2022-12-24T16:17:09;189.18;;;64.88;;
36787;SDS011;22738;45.560;9.434;2022-12-24T16:24:18;191.32;;;63.83;;
36787;SDS011;22738;45.560;9.434;2022-12-24T16:31:16;201.75;;;66.00;;
36787;SDS011;22738;45.560;9.434;2022-12-24T16:38:02;177.85;;;62.42;;
36787;SDS011;22738;45.560;9.434;2022-12-24T16:44:44;182.15;;;62.67;;
36787;SDS011;22738;45.560;9.434;2022-12-24T16:51:27;184.93;;;60.20;;
36787;SDS011;22738;45.560;9.434;2022-12-24T16:58:10;183.13;;;59.33;;
36787;SDS011;22738;45.560;9.434;2022-12-24T17:04:52;169.02;;;61.10;;
36787;SDS011;22738;45.560;9.434;2022-12-24T17:11:34;188.75;;;64.65;;
36787;SDS011;22738;45.560;9.434;2022-12-24T17:18:16;179.77;;;62.78;;
36787;SDS011;22738;45.560;9.434;2022-12-24T17:24:57;182.73;;;64.88;;
36787;SDS011;22738;45.560;9.434;2022-12-24T17:31:38;182.73;;;62.97;;
36787;SDS011;22738;45.560;9.434;2022-12-24T17:38:20;174.63;;;60.70;;
36787;SDS011;22738;45.560;9.434;2022-12-24T17:45:01;166.40;;;58.83;;
36787;SDS011;22738;45.560;9.434;2022-12-24T17:51:43;174.10;;;58.47;;
36787;SDS011;22738;45.560;9.434;2022-12-24T17:58:26;182.20;;;60.97;;
36787;SDS011;22738;45.560;9.434;2022-12-24T18:11:50;171.88;;;58.22;;
36787;SDS011;22738;45.560;9.434;2022-12-24T18:18:33;191.50;;;60.90;;
36787;SDS011;22738;45.560;9.434;2022-12-24T18:25:16;165.32;;;56.70;;
36787;SDS011;22738;45.560;9.434;2022-12-24T18:31:59;168.95;;;55.67;;
36787;SDS011;22738;45.560;9.434;2022-12-24T18:38:41;154.10;;;53.75;;
36787;SDS011;22738;45.560;9.434;2022-12-24T18:45:22;163.88;;;56.35;;
36787;SDS011;22738;45.560;9.434;2022-12-24T18:52:05;164.40;;;53.50;;
36787;SDS011;22738;45.560;9.434;2022-12-24T18:58:53;151.90;;;51.47;;
36787;SDS011;22738;45.560;9.434;2022-12-24T19:06:00;152.10;;;52.42;;
36787;SDS011;22738;45.560;9.434;2022-12-24T19:12:42;136.32;;;49.95;;
36787;SDS011;22738;45.560;9.434;2022-12-24T19:19:23;133.10;;;47.58;;
36787;SDS011;22738;45.560;9.434;2022-12-24T19:26:06;139.35;;;47.95;;
36787;SDS011;22738;45.560;9.434;2022-12-24T19:32:48;128.32;;;48.33;;
36787;SDS011;22738;45.560;9.434;2022-12-24T19:39:29;111.50;;;43.05;;
36787;SDS011;22738;45.560;9.434;2022-12-24T19:46:14;108.82;;;41.30;;
36787;SDS011;22738;45.560;9.434;2022-12-24T19:53:00;110.88;;;43.42;;
36787;SDS011;22738;45.560;9.434;2022-12-24T19:59:43;102.75;;;40.13;;
36787;SDS011;22738;45.560;9.434;2022-12-24T20:06:28;97.82;;;36.55;;
36787;SDS011;22738;45.560;9.434;2022-12-24T20:13:15;93.88;;;36.85;;
36787;SDS011;22738;45.560;9.434;2022-12-24T20:20:01;95.03;;;37.78;;
36787;SDS011;22738;45.560;9.434;2022-12-24T20:26:44;105.70;;;38.70;;
36787;SDS011;22738;45.560;9.434;2022-12-24T20:33:29;82.38;;;35.70;;
36787;SDS011;22738;45.560;9.434;2022-12-24T20:40:14;94.88;;;36.58;;
36787;SDS011;22738;45.560;9.434;2022-12-24T20:47:00;108.22;;;39.33;;
36787;SDS011;22738;45.560;9.434;2022-12-24T20:53:41;95.55;;;37.30;;
36787;SDS011;22738;45.560;9.434;2022-12-24T21:00:26;99.47;;;36.63;;
36787;SDS011;22738;45.560;9.434;2022-12-24T21:07:09;94.82;;;38.33;;
36787;SDS011;22738;45.560;9.434;2022-12-24T21:13:54;95.63;;;37.72;;
36787;SDS011;22738;45.560;9.434;2022-12-24T21:20:35;89.60;;;36.30;;
36787;SDS011;22738;45.560;9.434;2022-12-24T21:27:19;92.77;;;37.73;;
36787;SDS011;22738;45.560;9.434;2022-12-24T21:34:08;100.68;;;41.92;;
36787;SDS011;22738;45.560;9.434;2022-12-24T21:41:01;93.32;;;37.00;;
36787;SDS011;22738;45.560;9.434;2022-12-24T21:47:45;91.93;;;37.00;;
36787;SDS011;22738;45.560;9.434;2022-12-24T21:54:29;103.43;;;39.30;;
36787;SDS011;22738;45.560;9.434;2022-12-24T22:01:11;93.50;;;37.17;;
36787;SDS011;22738;45.560;9.434;2022-12-24T22:07:52;90.60;;;35.85;;
36787;SDS011;22738;45.560;9.434;2022-12-24T22:14:54;89.10;;;35.05;;
36787;SDS011;22738;45.560;9.434;2022-12-24T22:21:36;90.40;;;36.05;;
36787;SDS011;22738;45.560;9.434;2022-12-24T22:28:17;93.07;;;38.13;;
36787;SDS011;22738;45.560;9.434;2022-12-24T22:34:59;90.88;;;37.03;;
36787;SDS011;22738;45.560;9.434;2022-12-24T22:41:42;85.17;;;35.70;;
36787;SDS011;22738;45.560;9.434;2022-12-24T22:48:23;85.22;;;35.67;;
36787;SDS011;22738;45.560;9.434;2022-12-24T22:55:04;114.30;;;40.05;;
36787;SDS011;22738;45.560;9.434;2022-12-24T23:01:47;107.28;;;40.63;;
36787;SDS011;22738;45.560;9.434;2022-12-24T23:08:30;116.95;;;42.00;;
36787;SDS011;22738;45.560;9.434;2022-12-24T23:15:12;100.28;;;37.15;;
36787;SDS011;22738;45.560;9.434;2022-12-24T23:21:53;102.53;;;39.63;;
36787;SDS011;22738;45.560;9.434;2022-12-24T23:28:36;94.03;;;36.42;;
36787;SDS011;22738;45.560;9.434;2022-12-24T23:35:19;92.72;;;35.97;;
36787;SDS011;22738;45.560;9.434;2022-12-24T23:42:02;106.00;;;39.75;;
36787;SDS011;22738;45.560;9.434;2022-12-24T23:55:28;112.90;;;43.80;;
